Time;durP1;ratioP1;P1;durP2;ratioP2;P2;SDS_P1;SDS_P2;PMS_P1;PMS_P2;Temp;Humidity;BMP_temperature;BMP_pressure;BME280_temperature;BME280_humidity;BME280_pressure;Samples;Min_cycle;Max_cycle;Signal;HPM_P1;HPM_P2
2021/10/08 00:01:02;;;;;;;;;;;6.90;99.90;;;;;;5077597;28;20520;-59
2021/10/08 00:03:28;;;;;;;7.80;3.30;;;6.90;99.90;;;;;;5082934;28;19954;-58
2021/10/08 00:05:53;;;;;;;12.70;3.58;;;6.90;99.90;;;;;;5087857;28;20487;-60
2021/10/08 00:08:19;;;;;;;4.97;3.35;;;6.80;99.90;;;;;;5082253;28;20093;-60
2021/10/08 00:10:44;;;;;;;;;;;6.80;99.90;;;;;;5082469;28;20633;-59
2021/10/08 00:13:10;;;;;;;7.15;3.65;;;6.80;99.90;;;;;;5082465;28;19916;-56
2021/10/08 00:15:35;;;;;;;;;;;6.80;99.90;;;;;;5082977;28;20043;-60
2021/10/08 00:18:01;;;;;;;3.90;2.72;;;6.80;99.90;;;;;;5073881;28;19920;-60
2021/10/08 00:20:27;;;;;;;5.55;3.60;;;6.80;99.90;;;;;;5068316;28;20047;-60
2021/10/08 00:22:52;;;;;;;;;;;6.80;99.90;;;;;;5068582;28;20042;-61
2021/10/08 00:25:18;;;;;;;4.88;3.35;;;6.80;99.90;;;;;;5063324;28;19943;-58
2021/10/08 00:27:43;;;;;;;;;;;6.70;99.90;;;;;;5069085;28;20135;-56
2021/10/08 00:30:09;;;;;;;4.93;3.30;;;6.70;99.90;;;;;;5067870;28;19916;-58
2021/10/08 00:32:35;;;;;;;;;;;6.70;99.90;;;;;;5069628;28;20051;-57
2021/10/08 00:35:00;;;;;;;5.47;2.90;;;6.70;99.90;;;;;;5068518;28;19916;-58
2021/10/08 00:37:26;;;;;;;;;;;6.80;99.90;;;;;;5068629;28;20102;-59
2021/10/08 00:39:51;;;;;;;7.32;3.00;;;6.80;99.90;;;;;;5066976;28;19916;-58
2021/10/08 00:42:22;;;;;;;6.25;3.55;;;6.70;99.90;;;;;;5067576;28;20037;-58
2021/10/08 00:44:48;;;;;;;7.35;3.42;;;6.60;99.90;;;;;;5068628;28;20089;-60
2021/10/08 00:47:14;;;;;;;;;;;6.60;99.90;;;;;;5067445;28;20044;-52
2021/10/08 00:49:40;;;;;;;4.68;3.30;;;6.60;99.90;;;;;;5068359;28;19924;-56
2021/10/08 00:52:06;;;;;;;;;;;6.60;99.90;;;;;;5067856;28;20517;-58
2021/10/08 00:54:32;;;;;;;53.10;25.02;;;6.60;99.90;;;;;;5068621;28;19916;-56
2021/10/08 00:56:58;;;;;;;;;;;6.60;99.90;;;;;;5068377;28;20075;-61
2021/10/08 00:59:28;;;;;;;10.20;6.38;;;6.60;99.90;;;;;;5068611;28;19923;-56
2021/10/08 01:01:53;;;;;;;8.07;4.38;;;6.60;99.90;;;;;;5065817;28;20052;-59
2021/10/08 01:04:21;;;;;;;;;;;6.60;99.90;;;;;;5067017;28;20114;-53
2021/10/08 01:06:46;;;;;;;6.35;3.53;;;6.60;99.90;;;;;;5072490;28;19963;-56
2021/10/08 01:09:12;;;;;;;;;;;6.60;99.90;;;;;;5067523;28;20068;-53
2021/10/08 01:11:38;;;;;;;5.10;3.53;;;6.60;99.90;;;;;;5066989;28;19920;-57
2021/10/08 01:14:04;;;;;;;;;;;6.60;99.90;;;;;;5068658;28;20492;-58
2021/10/08 01:16:30;;;;;;;5.43;2.95;;;6.50;99.90;;;;;;5066742;28;19917;-57
2021/10/08 01:18:56;;;;;;;6.95;3.88;;;6.40;99.90;;;;;;5067931;28;20040;-59
2021/10/08 01:21:22;;;;;;;;;;;6.40;99.90;;;;;;5066548;28;20114;-53
2021/10/08 01:23:47;;;;;;;5.93;3.72;;;6.40;99.90;;;;;;5067808;28;19916;-58
2021/10/08 01:26:13;;;;;;;;;;;6.40;99.90;;;;;;5068086;28;20070;-57
2021/10/08 01:28:39;;;;;;;3.78;2.95;;;6.40;99.90;;;;;;5067396;28;19985;-59
2021/10/08 01:31:06;;;;;;;4.95;3.40;;;6.40;99.90;;;;;;5066305;28;20038;-58
2021/10/08 01:33:32;;;;;;;7.20;3.75;;;6.40;99.90;;;;;;5066723;28;20044;-58
2021/10/08 01:35:57;;;;;;;;;;;6.40;99.90;;;;;;5066489;28;20105;-55
2021/10/08 01:38:23;;;;;;;7.45;4.03;;;6.40;99.90;;;;;;5067932;28;19974;-56
2021/10/08 01:40:49;;;;;;;5.07;3.08;;;6.40;99.90;;;;;;5066509;28;20776;-58
2021/10/08 01:43:14;;;;;;;;;;;6.50;99.90;;;;;;5067559;28;20048;-57
2021/10/08 01:45:40;;;;;;;5.35;3.30;;;6.50;99.90;;;;;;5066696;28;19928;-54
2021/10/08 01:48:06;;;;;;;;;;;6.40;99.90;;;;;;5067670;28;20510;-59
2021/10/08 01:50:31;;;;;;;6.57;3.38;;;6.50;99.90;;;;;;5062451;28;19923;-58
2021/10/08 01:52:58;;;;;;;7.03;3.50;;;6.50;99.90;;;;;;5066891;28;20097;-57
2021/10/08 01:55:24;;;;;;;9.27;3.28;;;6.40;99.90;;;;;;5067547;28;20073;-58
2021/10/08 01:57:50;;;;;;;;;;;6.40;99.90;;;;;;5066205;28;20075;-56
2021/10/08 02:00:16;;;;;;;4.93;3.25;;;6.40;99.90;;;;;;5046032;28;19913;-54
2021/10/08 02:02:41;;;;;;;;;;;6.40;99.90;;;;;;5046760;28;20060;-56
2021/10/08 02:05:07;;;;;;;5.93;3.22;;;6.30;99.90;;;;;;5046441;28;19920;-57
2021/10/08 02:07:33;;;;;;;;;;;6.30;99.90;;;;;;5046740;28;20403;-59
2021/10/08 02:09:59;;;;;;;5.28;3.50;;;6.40;99.90;;;;;;5048029;28;19921;-57
2021/10/08 02:12:24;;;;;;;7.80;3.58;;;6.40;99.90;;;;;;5055931;28;20036;-58
2021/10/08 02:14:50;;;;;;;;;;;6.40;99.90;;;;;;5067265;28;20135;-57
2021/10/08 02:17:16;;;;;;;7.30;3.45;;;6.30;99.90;;;;;;5065740;28;20291;-55
2021/10/08 02:19:42;;;;;;;6.32;3.30;;;6.30;99.90;;;;;;5066091;28;20048;-54
2021/10/08 02:22:07;;;;;;;;;;;6.30;99.90;;;;;;5066532;28;20040;-56
2021/10/08 02:24:33;;;;;;;6.60;3.58;;;6.40;99.90;;;;;;5066936;28;20486;-56
2021/10/08 02:26:58;;;;;;;8.50;3.30;;;6.30;99.90;;;;;;5063513;28;20040;-57
2021/10/08 02:29:24;;;;;;;;;;;6.30;99.90;;;;;;5067176;28;20043;-52
2021/10/08 02:31:50;;;;;;;6.05;3.65;;;6.30;99.90;;;;;;5065289;28;20715;-56
2021/10/08 02:34:16;;;;;;;6.15;3.60;;;6.20;99.90;;;;;;5066084;28;20087;-56
2021/10/08 02:36:41;;;;;;;;;;;6.20;99.90;;;;;;5066619;28;20369;-56
2021/10/08 02:39:07;;;;;;;5.43;3.42;;;6.20;99.90;;;;;;5066393;28;19923;-56
2021/10/08 02:41:33;;;;;;;;;;;6.20;99.90;;;;;;5066294;28;20125;-56
2021/10/08 02:43:58;;;;;;;5.57;3.40;;;6.10;99.90;;;;;;5066487;28;19920;-59
2021/10/08 02:46:24;;;;;;;6.05;4.18;;;6.10;99.90;;;;;;5060810;28;20063;-57
2021/10/08 02:48:50;;;;;;;;;;;6.10;99.90;;;;;;5067785;28;20055;-60
2021/10/08 02:51:15;;;;;;;4.82;3.22;;;6.10;99.90;;;;;;5065186;28;19916;-58
2021/10/08 02:53:41;;;;;;;6.85;3.58;;;6.10;99.90;;;;;;5067093;28;20121;-59
2021/10/08 02:56:06;;;;;;;;;;;6.10;99.90;;;;;;5065531;28;20063;-60
2021/10/08 02:58:32;;;;;;;5.93;3.40;;;6.10;99.90;;;;;;5066087;28;19916;-60
2021/10/08 03:00:58;;;;;;;5.20;3.22;;;6.10;99.90;;;;;;5065407;28;21212;-60
2021/10/08 03:03:23;;;;;;;;;;;6.10;99.90;;;;;;5066911;28;20044;-58
2021/10/08 03:05:49;;;;;;;5.05;3.17;;;6.10;99.90;;;;;;5060669;28;19986;-60
2021/10/08 03:08:14;;;;;;;7.15;3.35;;;6.20;99.90;;;;;;5046149;28;20107;-60
2021/10/08 03:10:40;;;;;;;;;;;6.20;99.90;;;;;;5046682;28;20551;-60
2021/10/08 03:13:06;;;;;;;7.72;3.45;;;6.10;99.90;;;;;;5061489;28;19967;-59
2021/10/08 03:15:32;;;;;;;6.53;4.00;;;6.10;99.90;;;;;;5066190;28;20036;-60
2021/10/08 03:17:57;;;;;;;;;;;6.10;99.90;;;;;;5066462;28;20047;-60
2021/10/08 03:20:23;;;;;;;4.97;3.40;;;6.10;99.90;;;;;;5065743;28;19924;-60
2021/10/08 03:22:49;;;;;;;15.85;4.57;;;6.10;99.90;;;;;;5065959;28;20041;-57
2021/10/08 03:25:14;;;;;;;;;;;6.10;99.90;;;;;;5067099;28;20039;-60
2021/10/08 03:27:40;;;;;;;5.90;3.38;;;6.00;99.90;;;;;;5065344;28;19920;-61
2021/10/08 03:30:10;;;;;;;7.95;4.65;;;6.00;99.90;;;;;;5066453;28;20044;-59
2021/10/08 03:32:36;;;;;;;4.93;3.70;;;6.00;99.90;;;;;;5065263;28;20040;-59
2021/10/08 03:35:02;;;;;;;;;;;6.00;99.90;;;;;;5066984;28;20082;-59
2021/10/08 03:37:37;;;;;;;6.63;3.90;;;5.90;99.90;;;;;;5065560;28;19970;-60
2021/10/08 03:40:03;;;;;;;5.72;3.13;;;5.90;99.90;;;;;;5066114;28;20127;-58
2021/10/08 03:42:29;;;;;;;7.40;3.70;;;5.90;99.90;;;;;;5065598;28;20086;-60
2021/10/08 03:44:58;;;;;;;;;;;5.90;99.90;;;;;;5065228;28;20036;-60
2021/10/08 03:47:35;;;;;;;6.07;3.55;;;6.00;99.90;;;;;;5063659;28;19921;-60
2021/10/08 03:50:00;;;;;;;9.77;3.75;;;6.00;99.90;;;;;;5065186;28;20067;-61
2021/10/08 03:52:28;;;;;;;10.27;4.80;;;5.90;99.90;;;;;;5065904;28;20067;-61
2021/10/08 03:54:53;;;;;;;6.45;3.95;;;5.90;99.90;;;;;;5070153;28;20127;-60
2021/10/08 03:57:19;;;;;;;;;;;5.90;99.90;;;;;;5069430;28;20091;-61
2021/10/08 03:59:44;;;;;;;5.38;3.75;;;5.90;99.90;;;;;;5068263;28;19959;-61
2021/10/08 04:02:10;;;;;;;6.78;3.60;;;6.00;99.90;;;;;;5068794;28;20477;-61
2021/10/08 04:04:35;;;;;;;6.60;3.67;;;6.00;99.90;;;;;;5070109;28;20139;-56
2021/10/08 04:07:01;;;;;;;7.97;3.60;;;6.00;99.90;;;;;;5054026;28;20041;-60
2021/10/08 04:09:27;;;;;;;;;;;6.00;99.90;;;;;;5050548;28;20052;-60
2021/10/08 04:11:52;;;;;;;8.15;3.90;;;5.90;99.90;;;;;;5048712;28;19974;-59
2021/10/08 04:14:18;;;;;;;;;;;5.90;99.90;;;;;;5069305;28;20396;-61
2021/10/08 04:16:43;;;;;;;7.72;4.13;;;5.90;99.90;;;;;;5068282;28;19920;-61
2021/10/08 04:19:09;;;;;;;5.82;3.55;;;5.90;99.90;;;;;;5064871;28;20089;-58
2021/10/08 04:21:34;;;;;;;42.97;5.05;;;5.90;99.90;;;;;;5068752;28;20075;-60
2021/10/08 04:24:00;;;;;;;;;;;5.90;99.90;;;;;;5069859;28;20040;-58
2021/10/08 04:26:26;;;;;;;8.55;4.03;;;5.90;99.90;;;;;;5066979;28;19927;-61
2021/10/08 04:28:51;;;;;;;6.30;4.13;;;5.90;99.90;;;;;;5068769;28;20140;-63
2021/10/08 04:31:17;;;;;;;8.15;4.50;;;5.90;99.90;;;;;;5067811;28;20086;-61
2021/10/08 04:33:42;;;;;;;;;;;5.80;99.90;;;;;;5068326;28;20085;-59
2021/10/08 04:36:08;;;;;;;7.53;4.47;;;5.80;99.90;;;;;;5068363;28;19920;-59
2021/10/08 04:38:34;;;;;;;6.88;4.10;;;5.90;99.90;;;;;;5068654;28;20037;-63
2021/10/08 04:41:00;;;;;;;7.72;4.05;;;5.90;99.90;;;;;;5068890;28;20083;-59
2021/10/08 04:43:26;;;;;;;10.10;4.88;;;5.90;99.90;;;;;;5055037;28;20147;-59
2021/10/08 04:45:52;;;;;;;8.13;4.20;;;5.90;99.90;;;;;;5068530;28;20097;-59
2021/10/08 04:48:18;;;;;;;;;;;5.90;99.90;;;;;;5069515;28;20036;-58
2021/10/08 04:50:43;;;;;;;6.72;4.00;;;5.80;99.90;;;;;;5069125;28;20403;-60
2021/10/08 04:53:21;;;;;;;10.77;5.53;;;5.70;99.90;;;;;;5069833;28;20098;-60
2021/10/08 04:55:48;;;;;;;10.65;3.85;;;5.70;99.90;;;;;;5069178;28;20079;-59
2021/10/08 04:58:13;;;;;;;15.75;5.40;;;5.70;99.90;;;;;;5066835;28;20175;-59
2021/10/08 05:00:39;;;;;;;12.18;6.13;;;5.70;99.90;;;;;;5048222;28;20538;-55
2021/10/08 05:03:09;;;;;;;;;;;5.70;99.90;;;;;;5049039;28;20033;-60
2021/10/08 05:05:34;;;;;;;14.45;6.57;;;5.70;99.90;;;;;;5050716;28;20329;-57
2021/10/08 05:08:00;;;;;;;10.68;6.07;;;5.70;99.90;;;;;;5067251;28;20053;-59
2021/10/08 05:10:26;;;;;;;8.23;5.15;;;5.70;99.90;;;;;;5067929;28;20665;-60
2021/10/08 05:12:51;;;;;;;11.68;5.20;;;5.70;99.90;;;;;;5068634;28;20093;-60
2021/10/08 05:15:17;;;;;;;;;;;5.60;99.90;;;;;;5068881;28;20444;-58
2021/10/08 05:17:42;;;;;;;8.57;4.80;;;5.60;99.90;;;;;;5068231;28;19916;-58
2021/10/08 05:20:08;;;;;;;;;;;5.60;99.90;;;;;;5068349;28;20051;-60
2021/10/08 05:22:34;;;;;;;9.85;5.38;;;5.70;99.90;;;;;;5068407;28;19916;-59
2021/10/08 05:24:59;;;;;;;11.00;5.63;;;5.70;99.90;;;;;;5067022;28;20040;-59
2021/10/08 05:27:25;;;;;;;9.02;5.35;;;5.70;99.90;;;;;;5068871;28;20076;-60
2021/10/08 05:29:50;;;;;;;10.52;5.93;;;5.70;99.90;;;;;;5069730;28;20043;-59
2021/10/08 05:32:16;;;;;;;;;;;5.70;99.90;;;;;;5069602;28;20032;-57
2021/10/08 05:34:41;;;;;;;10.75;5.90;;;5.80;99.90;;;;;;5069114;28;19920;-58
2021/10/08 05:37:07;;;;;;;10.25;6.28;;;5.80;99.90;;;;;;5069160;28;20055;-63
2021/10/08 05:39:33;;;;;;;17.95;7.18;;;5.70;99.90;;;;;;5069418;28;20549;-58
2021/10/08 05:41:58;;;;;;;44.22;6.97;;;5.70;99.90;;;;;;5068224;28;20035;-59
2021/10/08 05:44:24;;;;;;;;;;;5.60;99.90;;;;;;5069657;28;20043;-59
2021/10/08 05:46:51;;;;;;;10.98;6.35;;;5.60;99.90;;;;;;5068145;28;19921;-61
2021/10/08 05:49:16;;;;;;;12.38;7.15;;;5.60;99.90;;;;;;5065474;28;20040;-61
2021/10/08 05:51:42;;;;;;;48.13;25.65;;;5.80;99.90;;;;;;5067928;28;20106;-60
2021/10/08 05:54:08;;;;;;;34.95;18.00;;;5.80;99.90;;;;;;5068762;28;20049;-59
2021/10/08 05:56:33;;;;;;;36.42;18.33;;;5.80;99.90;;;;;;5069235;28;20048;-60
2021/10/08 05:58:59;;;;;;;19.10;9.20;;;5.80;99.90;;;;;;5069073;28;20097;-59
2021/10/08 06:01:25;;;;;;;;;;;5.80;99.90;;;;;;5061042;28;20679;-60
2021/10/08 06:03:51;;;;;;;12.02;7.05;;;5.80;99.90;;;;;;5069147;28;20023;-56
2021/10/08 06:06:17;;;;;;;52.38;25.08;;;5.70;99.90;;;;;;5073012;28;20067;-58
2021/10/08 06:08:42;;;;;;;35.13;18.25;;;5.70;99.90;;;;;;5070338;28;20422;-61
2021/10/08 06:11:09;;;;;;;20.92;12.13;;;5.70;99.90;;;;;;5069745;28;20041;-57
2021/10/08 06:13:35;;;;;;;15.10;8.55;;;5.70;99.90;;;;;;5065951;28;20071;-55
2021/10/08 06:16:00;;;;;;;15.90;8.10;;;5.70;99.90;;;;;;5067406;28;20403;-60
2021/10/08 06:18:26;;;;;;;12.23;7.25;;;5.70;99.90;;;;;;5068647;28;20037;-59
2021/10/08 06:20:55;;;;;;;;;;;5.70;99.90;;;;;;5055395;22;20524;-58
2021/10/08 06:23:21;;;;;;;14.38;7.47;;;5.70;99.90;;;;;;5012100;28;19996;-56
2021/10/08 06:25:48;;;;;;;16.33;8.43;;;5.80;99.90;;;;;;5027594;28;20041;-57
2021/10/08 06:28:14;;;;;;;16.05;8.55;;;5.80;99.90;;;;;;5020933;28;21325;-61
2021/10/08 06:30:40;;;;;;;14.80;8.30;;;5.90;99.90;;;;;;5006674;28;20026;-59
2021/10/08 06:33:05;;;;;;;;;;;6.00;99.90;;;;;;5006424;28;20045;-57
2021/10/08 06:35:32;;;;;;;11.10;6.75;;;6.10;99.90;;;;;;5009616;28;19913;-59
2021/10/08 06:37:58;;;;;;;13.55;7.55;;;6.10;99.90;;;;;;5008018;28;20184;-60
2021/10/08 06:40:24;;;;;;;13.73;8.05;;;6.30;99.90;;;;;;5007354;28;20100;-59
2021/10/08 06:42:50;;;;;;;;;;;6.60;99.90;;;;;;5006564;28;20409;-60
2021/10/08 06:45:16;;;;;;;13.32;8.27;;;6.60;99.90;;;;;;5000299;28;19924;-61
2021/10/08 06:47:42;;;;;;;;;;;6.50;99.90;;;;;;4998371;28;20052;-61
2021/10/08 06:50:08;;;;;;;115.00;52.75;;;6.50;99.90;;;;;;5001422;28;20005;-58
2021/10/08 06:52:34;;;;;;;32.90;15.32;;;6.70;99.90;;;;;;4996609;28;20125;-61
2021/10/08 06:55:07;;;;;;;;;;;6.80;99.90;;;;;;5032300;23;20120;-75
2021/10/08 06:57:43;;;;;;;38.08;18.27;;;6.80;99.90;;;;;;5055997;28;19921;-75
2021/10/08 07:00:11;;;;;;;27.00;12.07;;;6.80;99.90;;;;;;5038223;28;20124;-75
2021/10/08 07:02:51;;;;;;;15.43;9.15;;;6.90;99.90;;;;;;5054541;28;20051;-76
2021/10/08 07:05:19;;;;;;;15.90;8.68;;;7.00;99.90;;;;;;5057354;28;20033;-76
2021/10/08 07:07:48;;;;;;;25.02;9.13;;;7.10;99.90;;;;;;5063964;28;20036;-74
2021/10/08 07:10:14;;;;;;;19.75;9.55;;;7.10;99.90;;;;;;5051132;28;20043;-74
2021/10/08 07:12:41;;;;;;;17.48;8.60;;;7.20;99.90;;;;;;5055133;28;20067;-76
2021/10/08 07:15:16;;;;;;;15.50;9.55;;;7.30;99.90;;;;;;5058866;28;20044;-74
2021/10/08 07:17:48;;;;;;;20.10;8.45;;;7.40;99.90;;;;;;5049014;28;20048;-74
2021/10/08 07:20:16;;;;;;;14.65;8.30;;;7.50;99.90;;;;;;5049273;28;20071;-77
2021/10/08 07:22:43;;;;;;;14.75;8.70;;;7.50;99.90;;;;;;5049900;28;20044;-77
2021/10/08 07:25:09;;;;;;;15.57;8.15;;;7.60;99.90;;;;;;5051095;28;20124;-80
2021/10/08 07:27:37;;;;;;;15.88;8.02;;;7.60;99.90;;;;;;5051689;28;20041;-77
2021/10/08 07:30:05;;;;;;;11.70;8.27;;;7.80;99.90;;;;;;5056013;28;20179;-76
2021/10/08 07:32:31;;;;;;;21.55;9.23;;;7.90;99.90;;;;;;5054046;28;20493;-77
2021/10/08 07:34:57;;;;;;;30.67;17.98;;;8.00;99.90;;;;;;5055120;28;20056;-75
2021/10/08 07:37:23;;;;;;;;;;;8.00;99.90;;;;;;5056286;28;20044;-76
2021/10/08 07:39:49;;;;;;;19.73;9.05;;;8.00;99.90;;;;;;5070097;28;19926;-76
2021/10/08 07:42:15;;;;;;;;;;;8.10;99.90;;;;;;5072967;28;20044;-78
2021/10/08 07:44:41;;;;;;;19.60;10.25;;;8.30;99.90;;;;;;5062216;28;19916;-78
2021/10/08 07:47:07;;;;;;;24.85;14.95;;;8.40;99.90;;;;;;5063804;28;20062;-78
2021/10/08 07:49:34;;;;;;;;;;;8.80;99.90;;;;;;5072587;28;20041;-77
2021/10/08 07:52:00;;;;;;;22.73;13.93;;;9.10;99.90;;;;;;5079122;28;20415;-77
2021/10/08 07:54:26;;;;;;;;;;;9.30;99.90;;;;;;5081761;28;20041;-78
2021/10/08 07:56:51;;;;;;;27.98;14.63;;;9.40;99.90;;;;;;5078653;28;19916;-77
2021/10/08 07:59:20;;;;;;;;;;;9.60;99.90;;;;;;5078451;28;20051;-78
2021/10/08 08:01:47;;;;;;;20.48;13.60;;;9.80;99.90;;;;;;5075809;28;19924;-78
2021/10/08 08:04:14;;;;;;;23.50;14.02;;;9.90;99.90;;;;;;5078244;28;20039;-78
2021/10/08 08:06:40;;;;;;;17.75;12.50;;;10.00;99.90;;;;;;5074100;28;20074;-77
2021/10/08 08:09:05;;;;;;;;;;;10.10;99.90;;;;;;5067255;28;20073;-77
2021/10/08 08:11:31;;;;;;;16.67;10.70;;;10.10;99.90;;;;;;5062670;28;20024;-76
2021/10/08 08:13:57;;;;;;;;;;;10.30;99.90;;;;;;5064648;28;20048;-76
2021/10/08 08:16:23;;;;;;;15.80;11.10;;;10.30;99.90;;;;;;5053316;28;19916;-78
2021/10/08 08:18:49;;;;;;;;;;;10.50;99.90;;;;;;5053268;28;20056;-75
2021/10/08 08:21:15;;;;;;;20.52;10.90;;;10.60;99.90;;;;;;5054978;28;20384;-75
2021/10/08 08:23:41;;;;;;;;;;;10.70;99.90;;;;;;5056862;28;20124;-76
2021/10/08 08:26:07;;;;;;;16.45;9.30;;;10.70;99.90;;;;;;5053276;28;19920;-76
2021/10/08 08:28:32;;;;;;;;;;;10.80;99.90;;;;;;5063572;28;20059;-76
2021/10/08 08:30:59;;;;;;;16.45;9.32;;;10.90;99.90;;;;;;5072438;28;19917;-76
2021/10/08 08:33:26;;;;;;;15.85;9.68;;;11.00;99.90;;;;;;5073104;28;20117;-76
2021/10/08 08:35:51;;;;;;;;;;;11.10;99.90;;;;;;5056011;28;20140;-76
2021/10/08 08:38:17;;;;;;;14.02;8.60;;;11.20;99.90;;;;;;5051883;28;20007;-76
2021/10/08 08:40:43;;;;;;;;;;;11.30;99.90;;;;;;5054152;28;20122;-77
2021/10/08 08:43:08;;;;;;;15.98;8.98;;;11.30;99.90;;;;;;5071773;28;19916;-76
2021/10/08 08:45:34;;;;;;;;;;;11.30;99.90;;;;;;5062630;28;20482;-76
2021/10/08 08:48:04;;;;;;;20.55;9.98;;;11.40;99.90;;;;;;5056683;28;19984;-76
2021/10/08 08:50:33;;;;;;;15.15;8.90;;;11.50;99.90;;;;;;5055959;28;20040;-76
2021/10/08 08:52:59;;;;;;;13.63;8.57;;;11.50;99.90;;;;;;5054513;28;20041;-76
2021/10/08 08:55:25;;;;;;;;;;;11.60;99.90;;;;;;5056561;28;20033;-77
2021/10/08 08:57:52;;;;;;;13.27;9.20;;;11.70;99.90;;;;;;5056080;28;19916;-78
2021/10/08 09:00:19;;;;;;;16.55;7.80;;;11.80;99.90;;;;;;5058089;28;20083;-77
2021/10/08 09:02:59;;;;;;;13.90;8.15;;;11.80;99.90;;;;;;5075586;28;20049;-76
2021/10/08 09:05:31;;;;;;;13.65;8.20;;;11.90;99.90;;;;;;5059022;28;20099;-78
2021/10/08 09:08:04;;;;;;;12.05;7.82;;;11.90;99.90;;;;;;5079092;28;20040;-77
2021/10/08 09:10:32;;;;;;;13.95;8.93;;;11.90;99.90;;;;;;5072831;28;20480;-76
2021/10/08 09:12:59;;;;;;;15.38;8.63;;;12.00;99.90;;;;;;5066829;28;20049;-77
2021/10/08 09:15:42;;;;;;;11.25;7.47;;;12.10;99.90;;;;;;5063873;28;20039;-77
2021/10/08 09:18:09;;;;;;;11.38;7.15;;;12.10;99.90;;;;;;5072964;28;20062;-77
2021/10/08 09:21:16;;;;;;;16.50;8.50;;;12.30;99.90;;;;;;5076994;28;20040;-78
2021/10/08 09:23:49;;;;;;;13.82;8.50;;;12.40;99.90;;;;;;5070113;28;20044;-76
2021/10/08 09:26:21;;;;;;;16.08;8.93;;;12.40;99.90;;;;;;5071522;28;20472;-76
2021/10/08 09:29:00;;;;;;;13.38;9.25;;;12.50;99.90;;;;;;5073008;28;20063;-77
2021/10/08 09:31:43;;;;;;;33.08;16.73;;;12.60;99.90;;;;;;5073585;28;20655;-78
2021/10/08 09:34:21;;;;;;;16.35;9.02;;;12.80;99.90;;;;;;5075762;28;20036;-76
2021/10/08 09:36:58;;;;;;;12.60;7.47;;;12.80;99.90;;;;;;5072741;28;20040;-77
2021/10/08 09:39:31;;;;;;;14.32;6.88;;;12.90;99.90;;;;;;5074929;28;20121;-77
2021/10/08 09:42:04;;;;;;;15.60;7.03;;;12.90;99.90;;;;;;5072971;28;20076;-78
2021/10/08 09:44:32;;;;;;;12.95;7.97;;;12.70;99.90;;;;;;5066146;28;20040;-76
2021/10/08 09:47:13;;;;;;;15.45;7.53;;;12.60;99.90;;;;;;5075667;28;20040;-77
2021/10/08 09:49:41;;;;;;;11.30;6.85;;;12.40;99.90;;;;;;5070597;28;20044;-77
2021/10/08 09:52:31;;;;;;;9.50;6.35;;;12.40;99.90;;;;;;5076221;28;20032;-76
2021/10/08 09:54:59;;;;;;;10.82;6.72;;;12.70;99.90;;;;;;5075132;28;20041;-77
2021/10/08 09:57:26;;;;;;;10.25;6.72;;;12.90;99.90;;;;;;5087896;28;20111;-77
2021/10/08 09:59:53;;;;;;;13.07;8.15;;;13.00;99.90;;;;;;5071752;28;20040;-77
2021/10/08 10:02:21;;;;;;;9.65;6.47;;;12.90;99.90;;;;;;5072137;28;20472;-77
2021/10/08 10:04:59;;;;;;;12.55;6.30;;;12.80;99.90;;;;;;5063516;28;20566;-77
2021/10/08 10:07:26;;;;;;;13.80;6.57;;;12.70;99.90;;;;;;5068660;28;20040;-77
2021/10/08 10:09:55;;;;;;;10.50;6.72;;;12.90;99.90;;;;;;5072269;28;20542;-77
2021/10/08 10:12:21;;;;;;;10.90;6.28;;;13.00;99.90;;;;;;5072118;28;20028;-76
2021/10/08 10:14:49;;;;;;;11.88;7.18;;;13.00;99.90;;;;;;5063930;28;20170;-77
2021/10/08 10:17:19;;;;;;;12.35;6.43;;;12.90;99.90;;;;;;5071086;28;20759;-79
2021/10/08 10:19:46;;;;;;;10.88;6.57;;;12.90;99.90;;;;;;5063615;28;20051;-76
2021/10/08 10:22:17;;;;;;;10.30;6.30;;;12.80;99.90;;;;;;5066723;28;20059;-76
2021/10/08 10:24:46;;;;;;;14.18;7.10;;;12.70;99.90;;;;;;5062860;28;20124;-76
2021/10/08 10:27:15;;;;;;;11.05;6.65;;;12.70;99.90;;;;;;5069390;28;20448;-77
2021/10/08 10:29:43;;;;;;;19.75;7.35;;;12.90;99.90;;;;;;5071493;28;20059;-77
2021/10/08 10:32:10;;;;;;;9.75;6.75;;;12.90;99.90;;;;;;5069473;28;20040;-78
2021/10/08 10:34:38;;;;;;;12.13;7.03;;;13.00;99.90;;;;;;5069078;28;20085;-78
2021/10/08 10:37:05;;;;;;;12.93;7.47;;;13.00;99.90;;;;;;5066412;28;20564;-77
2021/10/08 10:39:31;;;;;;;12.52;7.22;;;13.00;99.90;;;;;;5069563;28;20046;-79
2021/10/08 10:42:03;;;;;;;9.98;6.57;;;12.90;99.90;;;;;;5069361;28;20119;-78
2021/10/08 10:44:35;;;;;;;9.52;6.18;;;12.80;99.90;;;;;;5069134;28;20047;-78
2021/10/08 10:47:24;;;;;;;16.38;7.43;;;12.80;99.90;;;;;;5068780;28;20067;-81
2021/10/08 10:50:27;;;;;;;9.32;5.88;;;12.70;99.90;;;;;;5067367;28;20104;-79
2021/10/08 10:52:58;;;;;;;12.98;6.70;;;12.80;99.90;;;;;;5069768;28;20079;-81
2021/10/08 10:55:25;;;;;;;13.80;7.00;;;12.90;99.90;;;;;;5062332;28;20064;-80
2021/10/08 10:57:59;;;;;;;9.52;7.07;;;12.80;99.90;;;;;;5070288;28;20051;-80
2021/10/08 11:00:33;;;;;;;10.95;7.88;;;12.80;99.90;;;;;;5063486;28;20044;-80
2021/10/08 11:03:14;;;;;;;9.55;6.80;;;12.80;99.90;;;;;;5054156;28;20509;-79
2021/10/08 11:06:04;;;;;;;10.88;7.53;;;12.80;99.90;;;;;;5057895;28;20089;-81
2021/10/08 11:08:34;;;;;;;9.30;5.78;;;12.80;99.90;;;;;;5079305;28;20127;-81
2021/10/08 11:11:15;;;;;;;9.80;6.43;;;12.80;99.90;;;;;;5078249;28;20127;-81
2021/10/08 11:13:43;;;;;;;13.18;5.82;;;12.80;99.90;;;;;;5063488;28;20048;-81
2021/10/08 11:16:15;;;;;;;11.02;5.93;;;12.90;99.90;;;;;;5083189;28;20056;-81
2021/10/08 11:18:50;;;;;;;9.48;5.70;;;13.00;99.90;;;;;;5050389;28;20048;-82
2021/10/08 11:21:24;;;;;;;6.95;5.00;;;13.20;99.90;;;;;;5055921;28;20045;-79
2021/10/08 11:23:51;;;;;;;15.30;8.38;;;13.20;99.90;;;;;;5067381;28;20508;-79
2021/10/08 11:26:17;;;;;;;11.57;6.28;;;13.40;99.90;;;;;;5066620;28;20083;-80
2021/10/08 11:28:44;;;;;;;;;;;13.60;99.90;;;;;;5076557;28;20045;-80
2021/10/08 11:31:42;;;;;;;9.30;5.53;;;13.70;99.90;;;;;;5078197;28;19917;-80
2021/10/08 11:34:27;;;;;;;8.10;5.00;;;14.00;99.90;;;;;;5072991;28;20040;-79
2021/10/08 11:37:00;;;;;;;10.98;5.70;;;13.80;99.90;;;;;;5071720;28;20051;-80
2021/10/08 11:39:26;;;;;;;6.68;4.70;;;13.80;99.90;;;;;;5052842;28;20036;-79
2021/10/08 11:42:01;;;;;;;7.10;4.82;;;13.70;99.90;;;;;;5058267;28;20040;-80
2021/10/08 11:44:31;;;;;;;11.95;5.07;;;13.80;99.90;;;;;;5058911;28;20049;-80
2021/10/08 11:47:13;;;;;;;8.07;5.25;;;13.80;99.90;;;;;;5050623;28;20502;-80
2021/10/08 11:49:56;;;;;;;10.43;5.88;;;13.80;99.90;;;;;;5061801;28;20137;-81
2021/10/08 11:52:40;;;;;;;10.40;6.43;;;13.70;99.90;;;;;;5075799;28;20043;-81
2021/10/08 11:55:13;;;;;;;8.80;5.35;;;13.60;99.90;;;;;;5068829;28;20537;-80
2021/10/08 11:57:59;;;;;;;8.77;5.45;;;13.70;99.90;;;;;;5055928;28;20045;-81
2021/10/08 12:00:40;;;;;;;9.85;6.03;;;13.70;99.90;;;;;;5070051;28;20028;-81
2021/10/08 12:03:21;;;;;;;9.90;6.30;;;13.60;99.90;;;;;;5062802;28;20040;-82
2021/10/08 12:06:00;;;;;;;11.23;6.47;;;13.60;99.90;;;;;;5068554;28;20037;-82
2021/10/08 12:08:37;;;;;;;9.68;6.75;;;13.60;99.90;;;;;;5052096;28;20507;-80
2021/10/08 12:11:08;;;;;;;9.30;5.88;;;13.50;99.90;;;;;;5062467;28;20072;-83
2021/10/08 12:13:56;;;;;;;10.23;6.38;;;13.50;99.90;;;;;;5061269;28;20075;-81
2021/10/08 12:16:45;;;;;;;9.90;6.82;;;13.50;99.90;;;;;;5060360;28;20103;-82
2021/10/08 12:19:13;;;;;;;10.50;7.07;;;13.50;99.90;;;;;;5052687;28;20524;-80
2021/10/08 12:21:46;;;;;;;15.88;6.20;;;13.50;99.90;;;;;;5054206;28;20037;-80
2021/10/08 12:24:20;;;;;;;10.45;7.18;;;13.40;99.90;;;;;;5060446;28;20098;-80
2021/10/08 12:26:53;;;;;;;9.38;6.30;;;13.50;99.90;;;;;;5070315;28;20101;-84
2021/10/08 12:29:19;;;;;;;10.70;6.90;;;13.60;99.90;;;;;;5062021;28;20082;-80
2021/10/08 12:31:53;;;;;;;;;;;13.60;99.90;;;;;;5067141;28;20064;-81
2021/10/08 12:34:33;;;;;;;10.40;6.25;;;13.60;99.90;;;;;;5068954;28;19962;-80
2021/10/08 12:37:03;;;;;;;9.13;6.25;;;13.60;99.90;;;;;;5063933;28;20048;-81
2021/10/08 12:39:32;;;;;;;9.93;6.72;;;13.60;99.90;;;;;;5061832;28;20040;-80
2021/10/08 12:42:01;;;;;;;11.25;7.20;;;13.60;99.90;;;;;;5070132;28;20040;-79
2021/10/08 12:44:32;;;;;;;10.80;7.30;;;13.70;99.90;;;;;;5061314;28;20041;-80
2021/10/08 12:47:41;;;;;;;10.02;6.78;;;13.70;99.90;;;;;;5069542;28;20508;-79
2021/10/08 12:50:09;;;;;;;9.48;6.43;;;13.70;99.90;;;;;;5074363;28;20048;-79
2021/10/08 12:52:37;;;;;;;11.00;7.63;;;13.70;99.90;;;;;;5089691;28;20040;-79
2021/10/08 12:55:08;;;;;;;10.25;6.28;;;13.70;99.90;;;;;;5071852;28;20037;-79
2021/10/08 12:57:37;;;;;;;12.32;7.13;;;13.80;99.90;;;;;;5075869;28;20041;-79
2021/10/08 13:00:04;;;;;;;13.57;6.55;;;13.70;99.90;;;;;;5079189;28;20488;-77
2021/10/08 13:02:47;;;;;;;10.55;6.15;;;13.70;99.90;;;;;;5074096;28;20044;-79
2021/10/08 13:05:14;;;;;;;13.40;6.78;;;13.70;99.90;;;;;;5072750;28;20037;-79
2021/10/08 13:07:42;;;;;;;12.43;7.70;;;13.60;99.90;;;;;;5053333;28;20047;-77
2021/10/08 13:10:20;;;;;;;12.18;8.65;;;13.60;99.90;;;;;;5058332;28;20048;-80
2021/10/08 13:12:53;;;;;;;12.25;8.75;;;13.60;99.90;;;;;;5068350;28;20045;-80